Time;durP1;ratioP1;P1;durP2;ratioP2;P2;SDS_P1;SDS_P2;PMS_P1;PMS_P2;Temp;Humidity;BMP_temperature;BMP_pressure;BME280_temperature;BME280_humidity;BME280_pressure;Samples;Min_cycle;Max_cycle;Signal;HPM_P1;HPM_P2
2023/03/03 00:00:12;;;;;;;58.70;30.00;;;;;;;-0.91;63.39;100946.80;124067;1109;101871;-78
2023/03/03 00:03:08;;;;;;;67.23;29.37;;;;;;;-0.93;62.56;100944.09;124142;1105;104280;-78
2023/03/03 00:05:41;;;;;;;58.80;28.87;;;;;;;-0.94;62.47;100937.11;123980;1106;102028;-78
2023/03/03 00:08:13;;;;;;;56.77;27.43;;;;;;;-0.94;63.02;100938.80;124062;1105;101887;-77
2023/03/03 00:10:45;;;;;;;60.97;28.83;;;;;;;-0.95;63.11;100936.98;124039;1109;104240;-78
2023/03/03 00:13:17;;;;;;;59.07;27.50;;;;;;;-0.97;63.83;100930.80;124203;1105;104230;-78
2023/03/03 00:15:49;;;;;;;59.70;28.73;;;;;;;-1.00;63.36;100931.42;124067;1105;104191;-78
2023/03/03 00:18:26;;;;;;;53.87;26.87;;;;;;;-1.02;63.33;100921.77;124046;1105;102140;-78
2023/03/03 00:21:00;;;;;;;52.27;26.83;;;;;;;-1.02;63.63;100920.09;124008;1106;101971;-78
2023/03/03 00:23:38;;;;;;;55.28;25.68;;;;;;;-1.02;63.21;100922.66;124154;1108;102337;-78
2023/03/03 00:26:20;;;;;;;55.07;24.97;;;;;;;-1.02;63.86;100920.09;124059;1106;104207;-78
2023/03/03 00:28:55;;;;;;;55.63;28.10;;;;;;;-1.05;63.76;100917.23;124207;1109;102361;-78
2023/03/03 00:31:32;;;;;;;53.73;26.23;;;;;;;-1.05;63.68;100916.34;124063;1109;102109;-78
2023/03/03 00:34:24;;;;;;;53.90;26.17;;;;;;;-1.03;63.93;100907.96;124694;1105;104349;-78
2023/03/03 00:36:57;;;;;;;55.75;26.90;;;;;;;-1.05;63.61;100903.47;124054;1105;104326;-78
2023/03/03 00:39:35;;;;;;;56.40;26.93;;;;;;;-1.07;63.20;100908.48;124042;1105;102063;-78
2023/03/03 00:42:13;;;;;;;53.43;25.70;;;;;;;-1.09;64.32;100900.62;124197;1105;104287;-78
2023/03/03 00:44:46;;;;;;;57.57;28.73;;;;;;;-1.12;63.82;100895.20;124161;1105;101964;-78
2023/03/03 00:47:31;;;;;;;59.97;28.30;;;;;;;-1.16;63.58;100895.69;124312;1109;101911;-78
2023/03/03 00:50:38;;;;;;;57.30;27.67;;;;;;;-1.20;64.16;100898.77;124079;1105;104418;-78
2023/03/03 00:53:15;;;;;;;61.20;28.43;;;;;;;-1.25;64.36;100894.86;123972;1106;104195;-78
2023/03/03 00:55:48;;;;;;;57.77;27.23;;;;;;;-1.28;64.43;100895.52;124094;1108;101983;-78
2023/03/03 00:58:21;;;;;;;63.15;29.37;;;;;;;-1.31;63.39;100899.47;124119;1105;101977;-78
2023/03/03 01:00:55;;;;;;;56.90;28.50;;;;;;;-1.34;64.13;100889.82;124121;1105;104188;-78
2023/03/03 01:03:30;;;;;;;61.30;29.07;;;;;;;-1.34;63.75;100894.97;124576;1109;102039;-78
2023/03/03 01:06:02;;;;;;;59.33;28.63;;;;;;;-1.32;63.52;100889.95;124015;1109;102100;-78
2023/03/03 01:08:33;;;;;;;57.03;30.33;;;;;;;-1.28;64.72;100892.94;124218;1105;101877;-78
2023/03/03 01:11:11;;;;;;;54.70;27.47;;;;;;;-1.28;64.19;100885.22;124021;1105;101945;-78
2023/03/03 01:13:47;;;;;;;59.55;27.90;;;;;;;-1.31;64.02;100881.44;124070;1109;104278;-78
2023/03/03 01:16:19;;;;;;;57.17;27.93;;;;;;;-1.38;64.85;100879.11;124070;1109;104191;-78
2023/03/03 01:18:50;;;;;;;56.37;27.23;;;;;;;-1.46;64.23;100878.42;124110;1108;104357;-78
2023/03/03 01:21:22;;;;;;;62.63;29.10;;;;;;;-1.50;64.49;100881.48;124140;1105;104249;-78
2023/03/03 01:23:53;;;;;;;54.07;26.20;;;;;;;-1.55;64.50;100868.20;124145;1105;102147;-78
2023/03/03 01:26:25;;;;;;;59.30;27.33;;;;;;;-1.57;64.63;100867.17;124014;1106;104252;-78
2023/03/03 01:28:56;;;;;;;64.47;28.07;;;;;;;-1.58;64.00;100867.92;124147;1106;102108;-78
2023/03/03 01:31:28;;;;;;;57.33;27.67;;;;;;;-1.58;65.07;100870.49;124140;1105;102048;-78
2023/03/03 01:34:00;;;;;;;59.07;28.17;;;;;;;-1.61;64.34;100864.18;124129;1105;102070;-78
2023/03/03 01:36:31;;;;;;;56.07;27.47;;;;;;;-1.65;64.59;100861.33;124085;1108;104181;-78
2023/03/03 01:39:03;;;;;;;52.50;26.97;;;;;;;-1.69;64.76;100866.06;123991;1105;104207;-78
2023/03/03 01:41:34;;;;;;;53.63;26.83;;;;;;;-1.73;65.19;100862.31;124182;1105;104236;-78
2023/03/03 01:44:06;;;;;;;60.17;27.00;;;;;;;-1.75;65.32;100865.51;124067;1105;102004;-78
2023/03/03 01:46:46;;;;;;;54.17;28.30;;;;;;;-1.77;64.15;100857.65;124075;1105;104290;-78
2023/03/03 01:49:22;;;;;;;52.90;27.20;;;;;;;-1.78;64.53;100860.98;124104;1105;104230;-78
2023/03/03 01:51:58;;;;;;;61.80;28.50;;;;;;;-1.77;65.10;100852.50;124404;1105;102047;-78
2023/03/03 01:54:36;;;;;;;57.93;27.50;;;;;;;-1.88;64.83;100828.38;124147;1108;101839;-78
2023/03/03 01:57:13;;;;;;;58.83;28.17;;;;;;;-1.77;65.73;100857.65;124514;1109;102222;-78
2023/03/03 01:59:49;;;;;;;56.40;28.03;;;;;;;-1.79;64.54;100842.83;124054;1109;104269;-78
2023/03/03 02:02:20;;;;;;;62.53;30.63;;;;;;;-1.85;64.28;100849.23;124520;1109;102080;-78
2023/03/03 02:04:55;;;;;;;61.53;29.80;;;;;;;-1.88;65.53;100840.34;124075;1109;102578;-78
2023/03/03 02:07:31;;;;;;;59.60;30.33;;;;;;;-1.92;65.18;100834.00;124119;1105;104329;-78
2023/03/03 02:10:09;;;;;;;59.83;30.77;;;;;;;-1.96;65.46;100839.66;124102;1109;104294;-78
2023/03/03 02:12:44;;;;;;;64.83;32.53;;;;;;;-1.96;65.71;100837.08;124087;1105;104230;-78
2023/03/03 02:15:22;;;;;;;62.57;31.20;;;;;;;-1.95;65.27;100835.41;124085;1105;102106;-78
2023/03/03 02:17:55;;;;;;;57.97;28.50;;;;;;;-1.96;65.66;100834.51;124233;1109;101848;-78
2023/03/03 02:20:41;;;;;;;42.83;21.23;;;;;;;-1.99;65.55;100829.98;124145;1105;104179;-78
2023/03/03 02:23:18;;;;;;;55.77;27.00;;;;;;;-1.99;65.54;100832.55;124739;1105;102337;-78
2023/03/03 02:26:03;;;;;;;56.67;28.17;;;;;;;-2.03;66.00;100835.59;124102;1105;102071;-78
2023/03/03 02:28:36;;;;;;;55.83;26.27;;;;;;;-2.03;64.81;100839.84;124046;1106;104245;-78
2023/03/03 02:31:12;;;;;;;52.43;26.03;;;;;;;-2.03;65.46;100832.13;124027;1109;104307;-78
2023/03/03 02:33:46;;;;;;;52.50;24.90;;;;;;;-2.02;65.51;100826.23;124109;1109;104293;-78
2023/03/03 02:36:20;;;;;;;52.40;24.60;;;;;;;-2.03;66.37;100827.88;124038;1109;102051;-78
2023/03/03 02:38:59;;;;;;;55.05;25.65;;;;;;;-2.05;65.61;100826.85;124081;1106;101843;-79
2023/03/03 02:41:36;;;;;;;51.77;25.33;;;;;;;-2.07;66.30;100820.67;124561;1109;104338;-78
2023/03/03 02:44:10;;;;;;;54.40;24.80;;;;;;;-2.08;65.65;100820.53;124102;1109;101909;-78
2023/03/03 02:46:42;;;;;;;50.87;24.73;;;;;;;-2.15;66.36;100819.08;124107;1105;104191;-78
2023/03/03 02:49:16;;;;;;;44.90;24.43;;;;;;;-2.21;65.86;100815.95;124072;1105;104220;-78
2023/03/03 02:51:48;;;;;;;50.78;25.45;;;;;;;-2.25;66.47;100813.85;124304;1109;104192;-78
2023/03/03 02:54:21;;;;;;;52.47;25.13;;;;;;;-2.26;66.26;100810.39;124083;1105;101982;-78
2023/03/03 02:56:53;;;;;;;57.63;26.43;;;;;;;-2.25;66.50;100813.85;124069;1109;104188;-78
2023/03/03 02:59:25;;;;;;;50.47;24.70;;;;;;;-2.29;66.16;100809.18;124089;1105;102039;-78
2023/03/03 03:01:57;;;;;;;50.07;23.93;;;;;;;-2.35;66.33;100810.44;124474;1105;101817;-78
2023/03/03 03:04:29;;;;;;;50.40;24.60;;;;;;;-2.38;66.58;100807.59;124078;1106;104217;-78
2023/03/03 03:07:00;;;;;;;53.83;24.80;;;;;;;-2.40;66.36;100806.55;124139;1108;101913;-78
2023/03/03 03:09:33;;;;;;;54.57;25.63;;;;;;;-2.43;66.37;100807.91;124040;1108;101899;-78
2023/03/03 03:12:07;;;;;;;49.40;24.27;;;;;;;-2.49;66.62;100804.77;124124;1109;104239;-79
2023/03/03 03:14:39;;;;;;;48.38;23.15;;;;;;;-2.53;67.02;100803.59;124135;1109;102038;-78
2023/03/03 03:17:11;;;;;;;48.87;22.73;;;;;;;-2.55;67.15;100800.89;124079;1109;104197;-78
2023/03/03 03:19:43;;;;;;;52.07;24.53;;;;;;;-2.56;66.49;100799.07;124038;1109;101938;-78
2023/03/03 03:22:14;;;;;;;49.10;23.83;;;;;;;-2.59;66.24;100800.46;124009;1105;104195;-78
2023/03/03 03:24:46;;;;;;;49.87;22.63;;;;;;;-2.60;66.42;100791.86;124818;1108;104201;-78
2023/03/03 03:27:18;;;;;;;42.83;21.20;;;;;;;-2.61;67.25;100791.72;124094;1109;104261;-78
2023/03/03 03:29:50;;;;;;;51.50;23.67;;;;;;;-2.63;66.85;100790.69;124177;1109;101882;-78
2023/03/03 03:32:22;;;;;;;46.70;23.37;;;;;;;-2.59;66.79;100793.64;124038;1109;101999;-78
2023/03/03 03:34:54;;;;;;;49.00;26.10;;;;;;;-2.56;67.65;100793.93;124032;1108;102440;-78
2023/03/03 03:37:25;;;;;;;48.90;23.10;;;;;;;-2.57;67.63;100791.22;124866;1108;101912;-78
2023/03/03 03:39:57;;;;;;;49.80;24.63;;;;;;;-2.61;67.18;100791.72;124038;1109;104210;-79
2023/03/03 03:42:29;;;;;;;48.07;23.87;;;;;;;-2.67;67.78;100789.47;124578;1108;101874;-78
2023/03/03 03:45:01;;;;;;;50.87;26.13;;;;;;;-2.71;67.46;100787.41;124152;1108;104281;-78
2023/03/03 03:47:33;;;;;;;53.07;26.23;;;;;;;-2.76;68.07;100796.33;124734;1108;104326;-78
2023/03/03 03:50:05;;;;;;;49.93;26.93;;;;;;;-2.79;67.65;100796.04;124084;1109;102689;-78
2023/03/03 03:52:37;;;;;;;50.07;24.23;;;;;;;-2.80;67.77;100794.25;124027;1108;104358;-78
2023/03/03 03:55:10;;;;;;;50.70;25.53;;;;;;;-2.80;67.08;100789.12;124120;1108;104245;-78
2023/03/03 03:57:42;;;;;;;45.87;23.07;;;;;;;-2.79;67.66;100794.39;124024;1109;104287;-78
2023/03/03 04:00:16;;;;;;;52.80;26.47;;;;;;;-2.80;67.03;100801.95;124019;1109;101963;-78
2023/03/03 04:02:49;;;;;;;55.57;26.40;;;;;;;-2.80;67.66;100791.69;124483;1108;104271;-78
2023/03/03 04:05:21;;;;;;;44.97;23.37;;;;;;;-2.83;68.58;100799.10;124087;1109;104169;-79
2023/03/03 04:07:54;;;;;;;48.87;23.60;;;;;;;-2.88;68.17;100788.40;124098;1109;102188;-78
2023/03/03 04:10:25;;;;;;;47.43;24.57;;;;;;;-2.90;67.35;100783.12;124084;1105;104746;-78
2023/03/03 04:12:57;;;;;;;50.13;24.50;;;;;;;-2.91;67.99;100786.44;124001;1109;104242;-77
2023/03/03 04:15:28;;;;;;;48.70;24.97;;;;;;;-2.93;67.62;100784.47;124049;1109;104226;-77
2023/03/03 04:18:03;;;;;;;47.83;23.90;;;;;;;-2.93;67.83;100782.83;124139;1105;104227;-79
2023/03/03 04:20:36;;;;;;;47.77;24.40;;;;;;;-2.93;68.54;100777.70;124088;1109;102023;-78
2023/03/03 04:23:08;;;;;;;50.83;23.93;;;;;;;-2.93;68.10;100775.13;124041;1107;104408;-78
2023/03/03 04:25:39;;;;;;;47.70;25.00;;;;;;;-2.87;68.48;100773.88;124076;1109;102109;-78
2023/03/03 04:28:17;;;;;;;49.47;24.60;;;;;;;-2.89;68.44;100769.50;124117;1106;102345;-78
2023/03/03 04:30:49;;;;;;;47.60;23.60;;;;;;;-2.89;68.07;100777.20;124069;1109;104157;-80
2023/03/03 04:33:21;;;;;;;50.63;22.50;;;;;;;-2.92;67.61;100774.34;124116;1109;104176;-77
2023/03/03 04:35:52;;;;;;;53.20;25.87;;;;;;;-2.96;68.01;100774.84;124100;1109;101934;-78
2023/03/03 04:38:25;;;;;;;50.30;24.27;;;;;;;-3.00;67.60;100771.84;124003;1108;104246;-78
2023/03/03 04:40:57;;;;;;;44.07;21.17;;;;;;;-3.02;68.50;100771.70;123972;1109;102048;-77
2023/03/03 04:43:30;;;;;;;53.20;23.37;;;;;;;-3.05;68.25;100771.41;124735;1105;102036;-77
2023/03/03 04:46:01;;;;;;;49.90;24.65;;;;;;;-3.08;67.72;100766.88;123967;1106;101807;-77
2023/03/03 04:48:33;;;;;;;51.63;22.83;;;;;;;-3.08;68.25;100763.42;124870;1105;102059;-78
2023/03/03 04:51:04;;;;;;;49.93;23.77;;;;;;;-3.06;68.45;100774.72;124032;1109;104261;-78
2023/03/03 04:53:37;;;;;;;53.87;24.53;;;;;;;-3.05;68.13;100761.14;124039;1109;102035;-78
2023/03/03 04:56:09;;;;;;;56.57;25.47;;;;;;;-3.01;68.39;100749.48;124069;1105;101849;-77
2023/03/03 04:58:41;;;;;;;52.03;25.07;;;;;;;-2.93;68.57;100757.16;124020;1109;102119;-77
2023/03/03 05:01:14;;;;;;;51.00;25.87;;;;;;;-2.84;68.27;100756.19;123958;1109;104223;-77
2023/03/03 05:03:45;;;;;;;50.83;24.20;;;;;;;-2.76;69.25;100755.22;123991;1105;104275;-77
2023/03/03 05:06:18;;;;;;;53.23;24.87;;;;;;;-2.69;68.07;100752.47;123941;1109;104207;-77
2023/03/03 05:08:49;;;;;;;55.13;24.63;;;;;;;-2.64;68.46;100750.33;123956;1106;104379;-78
2023/03/03 05:11:20;;;;;;;55.03;26.00;;;;;;;-2.61;69.12;100753.18;124023;1109;104217;-77
2023/03/03 05:13:51;;;;;;;52.50;24.67;;;;;;;-2.59;69.26;100754.21;123991;1105;103307;-77
2023/03/03 05:16:23;;;;;;;53.70;24.70;;;;;;;-2.59;68.79;100751.64;124022;1106;104268;-77
2023/03/03 05:18:54;;;;;;;64.45;26.15;;;;;;;-2.60;68.32;100755.89;123945;1106;104079;-78
2023/03/03 05:21:25;;;;;;;51.20;24.07;;;;;;;-2.57;68.15;100753.60;124022;1105;104196;-78
2023/03/03 05:23:56;;;;;;;61.73;26.53;;;;;;;-2.51;69.41;100752.34;123994;1105;101936;-77
2023/03/03 05:26:28;;;;;;;55.30;24.77;;;;;;;-2.47;69.32;100746.73;124045;1105;104189;-77
2023/03/03 05:28:59;;;;;;;46.47;23.03;;;;;;;-2.40;68.75;100751.66;124103;1105;104182;-78
2023/03/03 05:31:31;;;;;;;52.00;22.40;;;;;;;-2.37;69.34;100750.28;124465;1105;102099;-81
2023/03/03 05:34:02;;;;;;;53.30;23.07;;;;;;;-2.29;69.57;100750.98;124815;1105;102102;-80
2023/03/03 05:36:33;;;;;;;51.27;23.07;;;;;;;-2.24;69.76;100742.01;124375;1109;104230;-81
2023/03/03 05:39:05;;;;;;;53.80;24.17;;;;;;;-2.20;69.16;100749.25;124367;1105;102048;-80
2023/03/03 05:41:36;;;;;;;47.47;21.83;;;;;;;-2.17;68.98;100748.59;124386;1105;104214;-80
2023/03/03 05:44:08;;;;;;;51.10;22.93;;;;;;;-2.15;69.31;100753.88;124301;1105;104182;-80
2023/03/03 05:46:41;;;;;;;54.57;24.20;;;;;;;-2.14;70.15;100756.59;124536;1105;104217;-79
2023/03/03 05:49:12;;;;;;;50.75;23.40;;;;;;;-2.11;70.45;100750.83;125066;1105;101983;-79
2023/03/03 05:51:44;;;;;;;49.23;23.67;;;;;;;-2.08;69.27;100741.71;124664;1105;104252;-80
2023/03/03 05:54:15;;;;;;;47.87;23.27;;;;;;;-2.00;69.72;100744.97;124274;1105;104233;-79
2023/03/03 05:56:46;;;;;;;47.53;23.37;;;;;;;-1.92;69.41;100750.80;124344;1105;104070;-80
2023/03/03 05:59:18;;;;;;;49.83;23.60;;;;;;;-1.87;69.93;100742.73;124221;1109;104255;-81
2023/03/03 06:01:51;;;;;;;48.30;24.20;;;;;;;-1.81;69.53;100747.50;124915;1108;101857;-80
2023/03/03 06:04:22;;;;;;;57.27;24.73;;;;;;;-1.70;70.04;100745.88;124960;1108;102098;-78
2023/03/03 06:06:54;;;;;;;49.07;25.70;;;;;;;-1.54;69.97;100742.98;124228;1108;104648;-80
2023/03/03 06:09:26;;;;;;;57.37;27.17;;;;;;;-1.42;69.67;100745.73;124970;1105;101849;-78
2023/03/03 06:11:57;;;;;;;58.23;25.37;;;;;;;-1.30;70.93;100741.66;124001;1105;104198;-77
2023/03/03 06:14:29;;;;;;;66.23;29.37;;;;;;;-1.24;69.75;100741.30;123771;1105;104326;-74
2023/03/03 06:17:00;;;;;;;64.93;29.03;;;;;;;-1.20;70.86;100741.69;123649;1105;104211;-74
2023/03/03 06:19:32;;;;;;;51.40;25.57;;;;;;;-1.17;71.47;100741.03;123638;1105;104258;-75
2023/03/03 06:22:04;;;;;;;57.20;26.93;;;;;;;-1.15;69.97;100742.98;123708;1109;101913;-74
2023/03/03 06:24:36;;;;;;;59.53;26.37;;;;;;;-1.10;71.08;100740.80;123626;1105;104309;-73
2023/03/03 06:27:09;;;;;;;58.30;27.10;;;;;;;-0.97;70.86;100732.44;124889;1105;101973;-76
2023/03/03 06:29:41;;;;;;;57.10;26.43;;;;;;;-0.87;70.56;100731.53;123917;1105;104264;-76
2023/03/03 06:32:19;;;;;;;57.17;27.07;;;;;;;-0.77;70.42;100735.02;124106;1109;101807;-76
2023/03/03 06:34:51;;;;;;;64.17;27.60;;;;;;;-0.68;71.24;100728.86;124001;1108;104265;-75
2023/03/03 06:37:23;;;;;;;66.30;31.27;;;;;;;-0.61;69.96;100738.89;123936;1108;104204;-79
2023/03/03 06:39:55;;;;;;;89.93;39.60;;;;;;;-0.55;70.26;100731.67;124415;1109;104255;-76
2023/03/03 06:42:26;;;;;;;80.53;38.63;;;;;;;-0.41;70.89;100727.67;124524;1107;104284;-80
2023/03/03 06:44:59;;;;;;;73.43;33.63;;;;;;;-0.32;69.83;100722.38;124374;1109;101991;-78
2023/03/03 06:47:32;;;;;;;65.80;31.53;;;;;;;-0.27;70.69;100732.28;123866;1108;104188;-76
2023/03/03 06:50:04;;;;;;;86.30;33.83;;;;;;;-0.18;70.87;100726.99;123734;1109;103686;-77
2023/03/03 06:52:35;;;;;;;55.45;28.10;;;;;;;-0.10;71.03;100725.04;123775;1109;102697;-79
2023/03/03 06:55:19;;;;;;;59.40;27.03;;;;;;;-0.04;71.28;100723.85;123720;1108;104323;-75
2023/03/03 06:57:51;;;;;;;49.73;23.93;;;;;;;0.08;70.96;100725.61;124469;1106;102084;-78
2023/03/03 07:00:27;;;;;;;59.10;27.77;;;;;;;0.14;71.34;100721.87;124295;1105;104178;-79
2023/03/03 07:03:07;;;;;;;51.80;25.93;;;;;;;0.24;70.96;100715.77;124456;1106;104178;-79
2023/03/03 07:05:40;;;;;;;54.27;27.67;;;;;;;0.35;70.71;100721.78;124455;1107;102803;-78
2023/03/03 07:08:16;;;;;;;56.87;27.13;;;;;;;0.52;70.37;100717.97;124499;1105;102868;-79
2023/03/03 07:10:49;;;;;;;51.73;26.37;;;;;;;0.71;70.99;100710.86;124242;1106;104395;-75
2023/03/03 07:13:23;;;;;;;48.13;24.23;;;;;;;0.83;70.63;100716.10;123670;1106;101830;-76
2023/03/03 07:15:56;;;;;;;51.42;26.97;;;;;;;0.91;70.63;100718.39;123850;1105;104680;-76
2023/03/03 07:18:35;;;;;;;54.35;25.72;;;;;;;0.97;70.57;100714.59;123774;1109;104198;-76
2023/03/03 07:21:25;;;;;;;48.87;22.67;;;;;;;1.13;70.71;100702.85;123801;1106;104217;-78
2023/03/03 07:24:22;;;;;;;;;;;;;;;;;;;;;
2023/03/03 07:26:56;;;;;;;54.95;24.70;;;;;;;1.43;70.69;100696.50;123816;1109;102059;-76
2023/03/03 07:29:27;;;;;;;;;;;;;;;1.59;70.01;100688.20;123729;1108;104294;-76
2023/03/03 07:32:03;;;;;;;51.17;23.73;;;;;;;1.68;70.15;100694.05;123811;1106;102381;-75
2023/03/03 07:34:37;;;;;;;;;;;;;;;1.77;69.70;100688.67;123807;1109;104291;-77
2023/03/03 07:37:24;;;;;;;54.00;23.40;;;;;;;1.76;69.67;100664.50;123911;1109;104392;-77
2023/03/03 07:39:57;;;;;;;47.60;23.50;;;;;;;1.99;70.28;100675.61;123835;1109;104047;-77
2023/03/03 07:42:39;;;;;;;45.20;21.50;;;;;;;2.08;70.27;100676.28;123833;1109;102042;-76
2023/03/03 07:45:29;;;;;;;46.57;22.90;;;;;;;2.22;69.71;100668.62;123839;1109;104206;-75
2023/03/03 07:48:14;;;;;;;49.83;25.70;;;;;;;2.32;69.95;100668.47;124096;1109;103422;-77
2023/03/03 07:50:58;;;;;;;52.27;25.83;;;;;;;2.45;69.81;100668.56;123872;1109;104347;-76
2023/03/03 07:53:36;;;;;;;49.47;24.27;;;;;;;2.60;69.78;100662.66;123943;1107;104185;-77
2023/03/03 07:56:22;;;;;;;53.90;25.27;;;;;;;2.70;70.14;100659.92;123707;1109;110899;-77
2023/03/03 07:58:56;;;;;;;52.60;24.57;;;;;;;2.86;69.34;100652.39;123955;1109;102222;-76
2023/03/03 08:01:48;;;;;;;49.73;24.13;;;;;;;3.01;70.55;100651.67;123990;1108;103482;-76
2023/03/03 08:04:41;;;;;;;;;;;;;;;;;;;;;
2023/03/03 08:07:30;;;;;;;52.07;24.67;;;;;;;3.39;70.56;100642.97;123855;1109;102505;-76
2023/03/03 08:10:26;;;;;;;51.33;24.17;;;;;;;3.56;69.88;100647.58;123982;1109;102151;-76
2023/03/03 08:13:25;;;;;;;48.80;23.90;;;;;;;3.73;69.44;100645.20;124007;1109;104290;-77
2023/03/03 08:16:04;;;;;;;48.53;25.83;;;;;;;3.91;69.57;100636.02;124493;1105;104181;-76
2023/03/03 08:18:45;;;;;;;57.97;24.77;;;;;;;4.08;69.35;100636.18;125018;1105;102101;-78
2023/03/03 08:21:19;;;;;;;47.50;24.40;;;;;;;4.18;68.76;100638.58;124289;1106;104329;-76
2023/03/03 08:23:53;;;;;;;48.43;22.97;;;;;;;4.29;68.81;100624.55;124726;1106;104194;-75
2023/03/03 08:26:26;;;;;;;48.45;23.00;;;;;;;4.45;68.85;100633.31;124035;1109;104297;-75
2023/03/03 08:28:57;;;;;;;49.83;23.47;;;;;;;4.57;68.25;100622.80;124113;1109;104313;-76
2023/03/03 08:31:30;;;;;;;47.13;23.70;;;;;;;4.70;68.51;100621.83;124240;1109;104201;-78
2023/03/03 08:34:08;;;;;;;50.47;24.17;;;;;;;4.86;68.24;100622.86;124328;1109;102286;-77
2023/03/03 08:36:41;;;;;;;51.87;24.47;;;;;;;4.98;68.50;100614.00;124086;1109;102131;-77
2023/03/03 08:39:31;;;;;;;54.47;24.23;;;;;;;5.11;68.12;100610.41;124849;1104;102055;-79
2023/03/03 08:45:25;;;;;;;34.43;12.73;;;;;;;5.49;67.63;100604.86;124180;1109;103340;-78
2023/03/03 08:47:58;;;;;;;34.43;10.87;;;;;;;5.64;67.52;100604.85;123905;1106;104241;-78
2023/03/03 08:50:33;;;;;;;26.13;9.50;;;;;;;5.79;66.03;100601.31;124269;1105;104242;-78
2023/03/03 08:53:10;;;;;;;24.83;9.10;;;;;;;5.93;66.55;100601.26;123786;1109;101888;-77
2023/03/03 08:55:43;;;;;;;22.57;9.13;;;;;;;6.01;65.44;100598.23;124053;1109;102485;-80
2023/03/03 08:58:17;;;;;;;25.73;9.17;;;;;;;6.15;66.47;100591.18;123997;1108;102183;-78
2023/03/03 09:00:50;;;;;;;21.07;8.25;;;;;;;6.26;66.34;100595.26;123928;1106;104294;-76
2023/03/03 09:03:23;;;;;;;22.22;8.85;;;;;;;6.33;65.72;100586.97;123673;1109;101967;-75
2023/03/03 09:05:55;;;;;;;20.77;7.73;;;;;;;6.41;65.24;100580.45;123655;1109;104259;-75
2023/03/03 09:08:27;;;;;;;23.90;8.20;;;;;;;6.53;65.95;100574.09;123840;1105;104223;-78
2023/03/03 09:10:59;;;;;;;22.40;8.70;;;;;;;6.58;64.84;100557.00;124137;1109;104316;-80
2023/03/03 09:13:32;;;;;;;19.73;8.40;;;;;;;6.65;65.20;100560.02;123951;1109;104214;-77
2023/03/03 09:16:08;;;;;;;22.73;8.90;;;;;;;6.74;65.03;100562.19;123857;1106;102786;-78
2023/03/03 09:18:44;;;;;;;22.80;8.53;;;;;;;6.86;65.24;100559.33;123795;1109;104226;-76
2023/03/03 09:21:25;;;;;;;22.70;9.03;;;;;;;6.93;65.16;100544.88;124007;1108;104301;-77
2023/03/03 09:23:58;;;;;;;21.50;8.80;;;;;;;6.98;64.60;100546.00;124018;1108;104197;-77
2023/03/03 09:26:45;;;;;;;20.17;8.63;;;;;;;7.04;64.34;100533.27;124138;1108;101843;-80
2023/03/03 09:29:27;;;;;;;35.80;9.57;;;;;;;7.06;63.37;100531.66;124262;1109;104124;-76
2023/03/03 09:32:01;;;;;;;24.63;8.80;;;;;;;7.14;62.94;100530.31;124047;1108;102073;-78
2023/03/03 09:34:41;;;;;;;20.63;8.93;;;;;;;7.21;62.63;100531.50;124981;1108;102290;-80
2023/03/03 09:37:26;;;;;;;21.33;8.97;;;;;;;7.31;62.90;100525.05;124454;1109;104113;-77
2023/03/03 09:40:00;;;;;;;19.43;8.30;;;;;;;7.40;63.46;100522.85;124047;1106;104079;-78
2023/03/03 09:42:59;;;;;;;22.60;9.15;;;;;;;7.44;63.76;100519.58;124727;1108;102041;-77
2023/03/03 09:45:55;;;;;;;20.50;8.80;;;;;;;7.45;63.57;100516.16;124322;1109;101927;-76
2023/03/03 09:48:59;;;;;;;21.23;8.50;;;;;;;7.33;60.61;100518.17;124344;1105;117878;-75
2023/03/03 09:51:55;;;;;;;20.90;8.43;;;;;;;7.32;62.76;100512.07;124130;1105;102535;-77
2023/03/03 09:54:43;;;;;;;24.25;8.90;;;;;;;7.36;61.73;100507.88;124704;1105;104271;-83
2023/03/03 09:57:18;;;;;;;20.30;8.40;;;;;;;7.48;61.79;100508.48;124660;1108;104242;-80
2023/03/03 10:00:08;;;;;;;22.00;7.67;;;;;;;7.62;61.79;100508.22;124464;1106;103034;-79
2023/03/03 10:02:58;;;;;;;19.43;7.83;;;;;;;7.67;60.79;100497.19;124614;1105;102311;-76
2023/03/03 10:05:48;;;;;;;21.27;7.90;;;;;;;7.71;61.30;100493.91;124434;1109;103488;-77
2023/03/03 10:08:45;;;;;;;24.33;8.13;;;;;;;7.81;61.61;100487.39;124158;1105;103527;-79
2023/03/03 10:11:25;;;;;;;23.90;8.43;;;;;;;7.95;61.51;100482.80;124029;1108;104188;-79
2023/03/03 10:14:25;;;;;;;21.67;8.33;;;;;;;8.03;61.49;100475.31;124194;1106;101868;-78
2023/03/03 10:17:15;;;;;;;24.30;8.43;;;;;;;8.04;61.32;100456.17;124432;1108;102368;-79
2023/03/03 10:20:00;;;;;;;19.90;8.50;;;;;;;8.21;61.42;100459.55;124923;1105;102082;-78
2023/03/03 10:22:42;;;;;;;20.93;8.73;;;;;;;8.28;61.20;100459.00;123929;1109;101810;-78
2023/03/03 10:25:29;;;;;;;20.80;8.80;;;;;;;8.30;60.96;100451.23;124489;1105;101945;-79
2023/03/03 10:28:31;;;;;;;20.47;8.37;;;;;;;8.32;61.13;100436.50;124745;1109;102295;-76
2023/03/03 10:31:26;;;;;;;25.33;9.20;;;;;;;8.38;60.96;100440.30;124057;1106;104355;-77
2023/03/03 10:34:15;;;;;;;25.87;9.00;;;;;;;8.44;61.23;100439.68;124006;1109;104214;-77
2023/03/03 10:37:18;;;;;;;19.93;8.70;;;;;;;8.45;61.07;100441.48;124035;1109;104287;-79
2023/03/03 10:40:17;;;;;;;23.30;8.65;;;;;;;8.42;60.83;100430.85;123994;1107;110912;-78
2023/03/03 10:43:11;;;;;;;21.30;8.63;;;;;;;8.48;60.74;100432.84;124166;1108;105704;-82
2023/03/03 10:46:18;;;;;;;25.20;8.90;;;;;;;8.56;60.72;100415.78;124733;1106;102112;-79
2023/03/03 10:49:18;;;;;;;22.23;8.60;;;;;;;8.63;59.51;100410.88;124800;1109;102388;-78
2023/03/03 10:52:09;;;;;;;23.40;8.60;;;;;;;8.61;57.86;100409.02;125065;1104;104195;-77
2023/03/03 10:55:04;;;;;;;21.10;8.07;;;;;;;8.53;59.70;100379.05;124573;1109;104182;-77
2023/03/03 10:57:45;;;;;;;79.83;15.63;;;;;;;8.73;59.01;100388.61;124176;1109;102468;-77
2023/03/03 11:00:35;;;;;;;27.33;9.40;;;;;;;8.84;58.78;100396.90;123879;1107;117765;-77
2023/03/03 11:03:44;;;;;;;21.60;8.50;;;;;;;8.89;58.58;100390.12;124428;1109;101876;-78
2023/03/03 11:06:25;;;;;;;19.60;8.33;;;;;;;8.98;58.99;100385.25;124643;1108;104210;-78
2023/03/03 11:09:10;;;;;;;19.13;8.00;;;;;;;8.97;57.67;100372.98;124533;1108;104316;-77
2023/03/03 11:11:45;;;;;;;;;;;;;;;8.98;56.19;100368.67;125369;1108;102351;-78
2023/03/03 11:14:32;;;;;;;18.47;8.03;;;;;;;8.99;57.99;100366.12;125394;1108;102014;-77
2023/03/03 11:17:18;;;;;;;18.93;7.97;;;;;;;9.05;58.17;100370.68;124848;1108;104290;-77
2023/03/03 11:20:02;;;;;;;22.00;8.37;;;;;;;9.10;58.26;100363.01;124413;1106;102223;-76
2023/03/03 11:22:52;;;;;;;17.57;7.62;;;;;;;9.17;58.22;100357.20;124471;1108;104201;-78
2023/03/03 11:25:35;;;;;;;18.93;7.70;;;;;;;9.21;57.27;100351.25;124857;1108;102017;-77
2023/03/03 11:28:28;;;;;;;19.83;7.90;;;;;;;9.22;57.03;100339.05;124318;1108;104297;-75
2023/03/03 11:31:24;;;;;;;20.27;8.20;;;;;;;9.21;56.07;100339.88;124064;1109;108410;-76
2023/03/03 11:34:13;;;;;;;20.30;8.23;;;;;;;9.24;56.97;100338.28;123896;1109;102038;-76
2023/03/03 11:36:56;;;;;;;23.40;8.57;;;;;;;9.25;56.63;100337.42;123973;1109;104651;-76
2023/03/03 11:39:30;;;;;;;17.43;7.70;;;;;;;9.27;56.63;100335.78;124458;1109;104275;-74
2023/03/03 11:42:18;;;;;;;19.80;7.50;;;;;;;9.27;56.65;100335.78;123962;1109;104375;-75
2023/03/03 11:45:10;;;;;;;17.67;7.53;;;;;;;9.24;56.64;100332.13;123968;1105;104130;-76
2023/03/03 11:48:01;;;;;;;22.27;8.07;;;;;;;9.20;56.16;100320.66;125306;1105;101932;-78
2023/03/03 11:50:55;;;;;;;18.90;7.97;;;;;;;9.17;55.85;100329.28;124182;1105;104202;-75